Time;durP1;ratioP1;P1;durP2;ratioP2;P2;SDS_P1;SDS_P2;PMS_P1;PMS_P2;Temp;Humidity;BMP_temperature;BMP_pressure;BME280_temperature;BME280_humidity;BME280_pressure;Samples;Min_cycle;Max_cycle;Signal;HPM_P1;HPM_P2
2021/06/15 00:01:46;;;;;;;;;;;;;;;24.25;43.30;101026.81;5040140;28;19913;-81
2021/06/15 00:04:30;;;;;;;;;;;;;;;24.12;42.43;101033.97;5035657;28;19913;-81
2021/06/15 00:07:14;;;;;;;;;;;;;;;24.09;42.86;101029.19;5051763;28;20563;-79
2021/06/15 00:09:59;;;;;;;;;;;;;;;24.05;44.01;101028.41;5031702;28;20580;-80
2021/06/15 00:12:44;;;;;;;;;;;;;;;24.00;42.34;101034.38;5037038;28;19913;-79
2021/06/15 00:15:28;;;;;;;;;;;;;;;24.10;42.19;101028.81;5042925;28;19912;-82
2021/06/15 00:18:14;;;;;;;;;;;;;;;23.97;41.57;101026.84;5044021;28;19916;-80
2021/06/15 00:20:59;;;;;;;;;;;;;;;23.94;43.09;101025.63;5039993;28;19912;-82
2021/06/15 00:23:44;;;;;;;;;;;;;;;24.08;42.43;101031.19;5049863;28;19921;-80
2021/06/15 00:26:29;;;;;;;;;;;;;;;24.02;42.08;101040.34;5058992;28;20416;-78
2021/06/15 00:29:14;;;;;;;;;;;;;;;24.13;42.86;101041.88;5034694;28;19917;-78
2021/06/15 00:31:59;;;;;;;;;;;;;;;24.16;44.32;101043.88;5050533;28;19916;-80
2021/06/15 00:34:43;;;;;;;;;;;;;;;24.11;43.43;101049.06;5048482;28;19913;-79
2021/06/15 00:37:27;;;;;;;;;;;;;;;24.04;44.03;101040.72;5050469;28;19912;-81
2021/06/15 00:40:12;;;;;;;;;;;;;;;24.12;43.56;101051.44;5024466;28;19913;-79
2021/06/15 00:42:57;;;;;;;;;;;;;;;24.11;45.39;101049.06;5047457;28;19925;-79
2021/06/15 00:45:42;;;;;;;;;;;;;;;24.06;43.68;101052.22;5050440;28;19912;-80
2021/06/15 00:48:28;;;;;;;;;;;;;;;24.07;43.77;101059.38;5027040;28;19913;-79
2021/06/15 00:51:14;;;;;;;;;;;;;;;23.97;43.46;101055.44;5046193;28;19912;-83
2021/06/15 00:53:59;;;;;;;;;;;;;;;23.95;43.75;101054.22;5035696;28;19913;-80
2021/06/15 00:56:44;;;;;;;;;;;;;;;24.00;44.29;101056.59;5038224;28;19917;-80
2021/06/15 00:59:29;;;;;;;;;;;;;;;24.01;43.32;101056.22;5020411;28;19920;-80
2021/06/15 01:02:13;;;;;;;;;;;;;;;23.90;44.29;101057.41;5035140;28;19920;-82
2021/06/15 01:05:00;;;;;;;;;;;;;;;23.96;42.89;101053.84;5046493;28;19913;-80
2021/06/15 01:07:50;;;;;;;;;;;;;;;23.88;43.36;101050.25;5036699;28;20385;-80
2021/06/15 01:10:48;;;;;;;;;;;;;;;23.88;45.01;101057.78;5040874;28;19913;-78
2021/06/15 01:13:52;;;;;;;;;;;;;;;23.87;44.71;101059.78;5034550;28;20401;-81
2021/06/15 01:16:41;;;;;;;;;;;;;;;23.94;43.09;101058.97;5030423;28;19916;-78
2021/06/15 01:19:32;;;;;;;;;;;;;;;24.04;44.12;101060.16;5021117;28;19912;-81
2021/06/15 01:22:20;;;;;;;;;;;;;;;23.87;42.80;101068.09;5051249;28;19921;-81
2021/06/15 01:25:30;;;;;;;;;;;;;;;23.95;42.49;101063.34;5034820;28;19913;-80
2021/06/15 01:28:24;;;;;;;;;;;;;;;23.92;42.18;101066.13;5049020;28;19921;-79
2021/06/15 01:31:14;;;;;;;;;;;;;;;23.88;43.66;101058.59;5016413;28;19917;-78
2021/06/15 01:34:08;;;;;;;;;;;;;;;23.89;42.54;101062.16;5045614;28;19917;-79
2021/06/15 01:36:54;;;;;;;;;;;;;;;24.07;43.48;101054.63;5016702;28;19916;-79
2021/06/15 01:39:48;;;;;;;;;;;;;;;24.08;43.22;101055.38;5021855;28;19912;-79
2021/06/15 01:42:39;;;;;;;;;;;;;;;23.98;42.75;101050.63;5019831;28;19921;-80
2021/06/15 01:45:31;;;;;;;;;;;;;;;24.20;43.60;101055.00;5048582;28;19913;-80
2021/06/15 01:48:31;;;;;;;;;;;;;;;24.18;41.59;101060.16;5017523;28;19917;-79
2021/06/15 01:51:17;;;;;;;;;;;;;;;24.04;41.22;101063.75;5031397;28;19913;-79
2021/06/15 01:54:11;;;;;;;;;;;;;;;23.91;41.65;101062.56;5046923;28;19917;-78
2021/06/15 01:57:07;;;;;;;;;;;;;;;23.93;42.74;101062.94;5039051;28;19916;-82
2021/06/15 01:59:55;;;;;;;;;;;;;;;23.99;41.81;101058.59;5021070;28;20531;-79
2021/06/15 02:02:41;;;;;;;;;;;;;;;23.98;42.31;101058.97;5021743;28;20285;-80
2021/06/15 02:05:30;;;;;;;;;;;;;;;23.99;41.42;101060.56;5034005;28;19913;-80
2021/06/15 02:08:22;;;;;;;;;;;;;;;24.04;41.40;101060.16;5022725;28;19987;-79
2021/06/15 02:11:07;;;;;;;;;;;;;;;23.87;40.54;101056.22;5033935;28;19913;-79
2021/06/15 02:14:31;;;;;;;;;;;;;;;23.87;42.21;101062.53;5028672;28;19913;-78
2021/06/15 02:17:43;;;;;;;;;;;;;;;23.84;41.07;101057.78;5039076;28;19920;-78
2021/06/15 02:20:37;;;;;;;;;;;;;;;23.80;41.20;101057.00;5032084;28;20297;-80
2021/06/15 02:23:23;;;;;;;;;;;;;;;23.79;41.23;101060.97;5034042;28;20373;-81
2021/06/15 02:26:10;;;;;;;;;;;;;;;23.77;41.52;101054.25;5030614;28;19917;-80
2021/06/15 02:29:03;;;;;;;;;;;;;;;23.76;40.50;101059.00;5010991;28;19917;-82
2021/06/15 02:31:54;;;;;;;;;;;;;;;23.68;40.57;101056.59;5057720;28;19916;-79
2021/06/15 02:34:47;;;;;;;;;;;;;;;23.65;40.89;101055.41;5030989;28;19912;-79
2021/06/15 02:37:35;;;;;;;;;;;;;;;23.56;40.97;101060.56;5044274;28;19913;-79
2021/06/15 02:40:24;;;;;;;;;;;;;;;23.62;40.48;101069.31;5040589;28;20304;-81
2021/06/15 02:43:10;;;;;;;;;;;;;;;23.56;40.93;101071.69;5036495;28;20289;-79
2021/06/15 02:45:56;;;;;;;;;;;;;;;23.54;40.78;101068.50;5054537;28;19913;-81
2021/06/15 02:48:42;;;;;;;;;;;;;;;23.56;41.10;101071.69;5065125;28;19913;-82
2021/06/15 02:51:28;;;;;;;;;;;;;;;23.61;41.24;101070.50;5063552;28;19913;-80
2021/06/15 02:54:29;;;;;;;;;;;;;;;23.56;41.27;101074.47;5046236;28;19916;-82
2021/06/15 02:57:16;;;;;;;;;;;;;;;23.75;40.72;101074.06;5041018;28;20320;-82
2021/06/15 03:00:04;;;;;;;;;;;;;;;23.66;42.74;101078.44;5040479;28;19913;-78
2021/06/15 03:02:49;;;;;;;;;;;;;;;23.76;41.39;101078.44;5053223;28;19920;-81
2021/06/15 03:05:35;;;;;;;;;;;;;;;23.68;40.47;101082.38;5033231;28;19917;-81
2021/06/15 03:08:20;;;;;;;;;;;;;;;23.65;40.80;101082.38;5043955;28;19917;-83
2021/06/15 03:11:06;;;;;;;;;;;;;;;23.76;41.55;101089.56;5028783;28;19921;-80
2021/06/15 03:13:57;;;;;;;;;;;;;;;23.63;40.86;101085.56;5009484;28;19913;-80
2021/06/15 03:16:42;;;;;;;;;;;;;;;23.49;40.66;101085.53;5042222;28;19912;-83
2021/06/15 03:19:31;;;;;;;;;;;;;;;23.53;41.01;101083.56;5041270;28;20464;-81
2021/06/15 03:22:20;;;;;;;;;;;;;;;23.58;41.18;101083.16;5032754;28;19924;-82
2021/06/15 03:25:05;;;;;;;;;;;;;;;23.57;40.99;101081.56;5024468;28;19917;-80
2021/06/15 03:27:55;;;;;;;;;;;;;;;23.62;40.73;101092.28;5024189;28;19912;-80
2021/06/15 03:30:43;;;;;;;;;;;;;;;23.80;41.21;101092.31;5033380;28;19917;-79
2021/06/15 03:33:28;;;;;;;;;;;;;;;23.87;40.90;101092.34;5044169;28;19912;-78
2021/06/15 03:36:16;;;;;;;;;;;;;;;23.71;40.66;101083.59;5052833;28;19913;-78
2021/06/15 03:39:02;;;;;;;;;;;;;;;23.74;40.23;101091.91;5031428;28;20292;-81
2021/06/15 03:41:50;;;;;;;;;;;;;;;23.80;41.27;101095.91;5021411;28;19912;-78
2021/06/15 03:44:35;;;;;;;;;;;;;;;23.93;42.60;101085.16;5042499;28;19916;-80
2021/06/15 03:47:23;;;;;;;;;;;;;;;23.81;40.20;101091.94;5044038;28;19916;-80
2021/06/15 03:50:08;;;;;;;;;;;;;;;23.91;40.41;101092.31;5042664;28;19912;-80
2021/06/15 03:52:56;;;;;;;;;;;;;;;23.96;40.32;101095.50;5030315;28;19920;-83
2021/06/15 03:55:41;;;;;;;;;;;;;;;24.04;42.08;101104.63;5042607;28;19913;-81
2021/06/15 03:58:26;;;;;;;;;;;;;;;23.94;40.26;101105.41;5058227;28;20504;-80
2021/06/15 04:01:15;;;;;;;;;;;;;;;23.96;40.91;101105.81;5041507;28;19912;-79
2021/06/15 04:04:02;;;;;;;;;;;;;;;23.97;40.54;101111.00;5055561;28;19917;-79
2021/06/15 04:06:51;;;;;;;;;;;;;;;23.96;41.84;101108.59;5044273;28;19917;-81
2021/06/15 04:09:39;;;;;;;;;;;;;;;23.92;43.00;101113.38;5041060;28;19912;-79
2021/06/15 04:12:24;;;;;;;;;;;;;;;23.92;41.50;101118.94;5054784;28;19917;-78
2021/06/15 04:15:10;;;;;;;;;;;;;;;23.92;42.08;101114.16;5059631;28;20459;-79
2021/06/15 04:17:59;;;;;;;;;;;;;;;23.71;39.55;101114.13;5046018;28;20389;-77
2021/06/15 04:20:46;;;;;;;;;;;;;;;23.57;41.35;101119.69;5054580;28;19917;-80
2021/06/15 04:23:40;;;;;;;;;;;;;;;23.64;41.74;101117.69;5043342;28;19925;-79
2021/06/15 04:26:25;;;;;;;;;;;;;;;23.77;40.03;101118.88;5036440;28;19912;-80
2021/06/15 04:29:16;;;;;;;;;;;;;;;23.82;41.66;101126.81;5038840;28;19913;-76
2021/06/15 04:32:04;;;;;;;;;;;;;;;23.79;40.52;101130.41;5041583;28;19912;-81
2021/06/15 04:34:53;;;;;;;;;;;;;;;23.69;40.26;101125.63;5032379;28;20108;-79
2021/06/15 04:37:38;;;;;;;;;;;;;;;23.75;41.68;101126.84;5027488;28;19912;-80
2021/06/15 04:40:26;;;;;;;;;;;;;;;23.66;39.87;101123.66;5032299;28;19925;-78
2021/06/15 04:43:26;;;;;;;;;;;;;;;23.66;40.23;101139.53;5042548;28;19925;-80
2021/06/15 04:46:21;;;;;;;;;;;;;;;23.84;40.74;101143.91;5040360;28;19912;-80
2021/06/15 04:49:08;;;;;;;;;;;;;;;23.78;39.91;101142.72;5043947;28;19916;-80
2021/06/15 04:51:53;;;;;;;;;;;;;;;23.90;40.73;101146.28;5023558;28;19913;-81
2021/06/15 04:54:39;;;;;;;;;;;;;;;23.88;40.38;101144.69;5049870;28;19913;-81
2021/06/15 04:57:26;;;;;;;;;;;;;;;23.72;40.84;101155.38;5044732;28;20316;-81
2021/06/15 05:00:11;;;;;;;;;;;;;;;23.69;41.68;101155.38;5045942;28;20397;-80
2021/06/15 05:02:57;;;;;;;;;;;;;;;23.64;41.71;101153.00;5025260;28;19925;-78
2021/06/15 05:05:42;;;;;;;;;;;;;;;23.66;41.86;101151.44;5049932;28;19912;-78
2021/06/15 05:08:27;;;;;;;;;;;;;;;23.67;42.11;101157.78;5043433;28;19913;-78
2021/06/15 05:11:13;;;;;;;;;;;;;;;23.63;41.35;101163.31;5043259;28;20304;-79
2021/06/15 05:13:59;;;;;;;;;;;;;;;23.64;40.74;101156.56;5043421;28;19913;-79
2021/06/15 05:16:44;;;;;;;;;;;;;;;23.65;41.96;101160.94;5061018;28;20376;-80
2021/06/15 05:19:30;;;;;;;;;;;;;;;23.69;41.74;101164.50;5039298;28;19913;-79
2021/06/15 05:22:22;;;;;;;;;;;;;;;23.66;42.23;101162.53;5027389;28;19913;-80
2021/06/15 05:25:09;;;;;;;;;;;;;;;23.77;41.36;101157.78;5034472;28;19917;-79
2021/06/15 05:27:54;;;;;;;;;;;;;;;23.77;41.87;101163.34;5052568;28;20381;-80
2021/06/15 05:30:39;;;;;;;;;;;;;;;23.77;42.09;101162.56;5057002;28;19913;-80
2021/06/15 05:33:24;;;;;;;;;;;;;;;23.75;42.32;101165.72;5055438;28;19913;-79
2021/06/15 05:36:08;;;;;;;;;;;;;;;23.81;42.58;101169.72;5058349;28;19913;-79
2021/06/15 05:38:53;;;;;;;;;;;;;;;23.72;41.97;101169.28;5038599;28;19916;-79
2021/06/15 05:41:39;;;;;;;;;;;;;;;23.76;42.61;101170.09;5054152;28;19913;-81
2021/06/15 05:44:24;;;;;;;;;;;;;;;23.74;42.59;101172.47;5036236;28;19916;-80
2021/06/15 05:47:11;;;;;;;;;;;;;;;23.75;42.89;101174.06;5052780;28;19913;-80
2021/06/15 05:49:56;;;;;;;;;;;;;;;23.81;43.08;101183.59;5041946;28;19916;-80
2021/06/15 05:52:41;;;;;;;;;;;;;;;23.90;43.17;101176.84;5038020;28;19913;-81
2021/06/15 05:55:25;;;;;;;;;;;;;;;23.86;43.67;101180.44;5053201;28;19913;-82
2021/06/15 05:58:10;;;;;;;;;;;;;;;23.77;44.44;101180.00;5059113;28;19912;-83
2021/06/15 06:00:54;;;;;;;;;;;;;;;23.83;44.55;101183.19;5039928;28;19913;-83
2021/06/15 06:03:44;;;;;;;;;;;;;;;23.99;44.14;101191.16;5041303;28;19917;-82
2021/06/15 06:09:32;;;;;;;;;;;;;;;24.41;43.41;101187.63;5066458;28;20288;-81
2021/06/15 06:12:17;;;;;;;;;;;;;;;24.47;43.35;101195.19;5062006;28;20376;-80
2021/06/15 06:15:02;;;;;;;;;;;;;;;24.61;43.41;101194.38;5054369;28;19912;-81
2021/06/15 06:17:49;;;;;;;;;;;;;;;24.62;42.88;101198.75;5053227;28;19932;-81
2021/06/15 06:20:34;;;;;;;;;;;;;;;24.60;42.43;101196.34;5044768;28;19938;-83
2021/06/15 06:23:19;;;;;;;;;;;;;;;24.73;42.58;101184.81;5057605;28;19916;-83
2021/06/15 06:26:04;;;;;;;;;;;;;;;24.82;42.73;101194.34;5055763;28;19913;-81
2021/06/15 06:28:48;;;;;;;;;;;;;;;24.91;42.33;101197.53;5059719;28;19916;-81
2021/06/15 06:31:33;;;;;;;;;;;;;;;24.95;42.55;101197.50;5042514;28;19912;-81
2021/06/15 06:34:18;;;;;;;;;;;;;;;24.83;42.35;101189.56;5039974;28;20285;-80
2021/06/15 06:37:02;;;;;;;;;;;;;;;24.95;42.70;101189.16;5045467;28;19912;-82
2021/06/15 06:39:47;;;;;;;;;;;;;;;25.01;42.31;101185.56;5042167;28;20411;-81
2021/06/15 06:42:31;;;;;;;;;;;;;;;25.11;42.19;101195.09;5036793;28;19921;-80
2021/06/15 06:45:17;;;;;;;;;;;;;;;25.12;41.91;101197.47;5045017;28;19917;-80
2021/06/15 06:48:03;;;;;;;;;;;;;;;25.06;41.85;101195.50;5048202;28;19912;-81
2021/06/15 06:50:47;;;;;;;;;;;;;;;25.15;41.84;101195.84;5032061;28;19912;-79
2021/06/15 06:53:32;;;;;;;;;;;;;;;25.16;41.73;101191.88;5036810;28;19912;-79
2021/06/15 06:56:17;;;;;;;;;;;;;;;25.34;41.12;101192.63;5052729;28;19920;-81
2021/06/15 06:59:02;;;;;;;;;;;;;;;25.19;41.74;101199.44;5039733;28;19976;-80
2021/06/15 07:01:47;;;;;;;;;;;;;;;25.38;41.06;101187.84;5043724;28;19920;-81
2021/06/15 07:04:31;;;;;;;;;;;;;;;25.48;41.19;101191.75;5040365;28;19917;-82
2021/06/15 07:07:16;;;;;;;;;;;;;;;25.61;41.01;101189.31;5037270;28;19913;-82
2021/06/15 07:10:00;;;;;;;;;;;;;;;25.71;39.95;101186.47;5037357;28;19913;-82
2021/06/15 07:12:45;;;;;;;;;;;;;;;25.53;40.18;101194.13;5053655;28;19913;-81
2021/06/15 07:15:29;;;;;;;;;;;;;;;25.26;40.20;101193.84;5041240;28;19912;-81
2021/06/15 07:18:14;;;;;;;;;;;;;;;25.43;39.77;101192.19;5037947;28;19912;-81
2021/06/15 07:20:59;;;;;;;;;;;;;;;25.39;39.43;101189.41;5028679;28;19912;-79
2021/06/15 07:23:44;;;;;;;;;;;;;;;25.57;39.74;101189.34;5030616;28;19917;-79
2021/06/15 07:26:29;;;;;;;;;;;;;;;25.60;38.71;101187.75;5035626;28;19913;-77
2021/06/15 07:29:14;;;;;;;;;;;;;;;25.63;38.38;101186.94;5048279;28;20301;-80
2021/06/15 07:31:59;;;;;;;;;;;;;;;25.73;39.79;101197.22;5048012;28;19913;-80
2021/06/15 07:34:43;;;;;;;;;;;;;;;25.87;38.97;101186.00;5043362;28;20380;-80
2021/06/15 07:37:28;;;;;;;;;;;;;;;26.17;38.42;101188.97;5042093;28;19917;-80
2021/06/15 07:40:12;;;;;;;;;;;;;;;26.21;39.58;101188.94;5052452;28;19929;-81
2021/06/15 07:42:58;;;;;;;;;;;;;;;26.35;37.58;101180.50;5044071;28;19913;-79
2021/06/15 07:45:43;;;;;;;;;;;;;;;26.49;37.87;101185.94;5025086;28;19971;-80
2021/06/15 07:48:27;;;;;;;;;;;;;;;26.49;36.56;101185.94;5033896;28;20304;-81
2021/06/15 07:51:13;;;;;;;;;;;;;;;26.65;38.01;101177.81;5030344;28;19913;-82
2021/06/15 07:53:57;;;;;;;;;;;;;;;26.56;36.72;101185.88;5042459;28;20308;-81
2021/06/15 07:56:41;;;;;;;;;;;;;;;26.66;35.55;101186.97;5033204;28;19913;-80
2021/06/15 07:59:26;;;;;;;;;;;;;;;26.62;36.54;101186.19;5031847;28;19913;-81
2021/06/15 08:02:10;;;;;;;;;;;;;;;26.74;36.71;101182.91;5031682;28;19913;-80
2021/06/15 08:04:55;;;;;;;;;;;;;;;26.44;39.25;101180.00;5042741;28;19917;-81
2021/06/15 08:07:40;;;;;;;;;;;;;;;26.56;38.32;101176.72;5033040;28;19913;-81
2021/06/15 08:10:25;;;;;;;;;;;;;;;26.66;38.05;101181.41;5026050;28;20297;-80
2021/06/15 08:13:09;;;;;;;;;;;;;;;26.94;36.32;101183.13;5032105;28;19913;-81
2021/06/15 08:15:54;;;;;;;;;;;;;;;27.31;35.45;101174.69;5052258;28;20381;-81
2021/06/15 08:18:38;;;;;;;;;;;;;;;27.32;36.67;101173.50;5052671;28;19912;-80
2021/06/15 08:21:26;;;;;;;;;;;;;;;27.35;35.42;101174.66;5039422;28;19913;-79
2021/06/15 08:24:14;;;;;;;;;;;;;;;27.38;34.13;101163.41;5045554;28;19917;-81
2021/06/15 08:27:00;;;;;;;;;;;;;;;27.47;34.18;101165.72;5050050;28;19913;-79
2021/06/15 08:29:44;;;;;;;;;;;;;;;27.04;33.88;101155.06;5036864;28;19913;-80
2021/06/15 08:32:29;;;;;;;;;;;;;;;27.32;33.77;101161.53;5034688;28;19913;-79
2021/06/15 08:35:13;;;;;;;;;;;;;;;27.23;31.81;101151.63;5031860;28;19912;-78
2021/06/15 08:37:58;;;;;;;;;;;;;;;26.97;30.68;101157.94;5049144;28;19913;-80
2021/06/15 08:40:43;;;;;;;;;;;;;;;26.94;32.89;101150.41;5049003;28;19912;-79
2021/06/15 08:43:28;;;;;;;;;;;;;;;26.69;32.37;101156.25;5050263;28;19912;-78
2021/06/15 08:46:13;;;;;;;;;;;;;;;26.73;31.33;101153.41;5046263;28;19921;-78
2021/06/15 08:48:58;;;;;;;;;;;;;;;27.05;30.81;101150.28;5034861;28;19917;-78
2021/06/15 08:51:43;;;;;;;;;;;;;;;27.22;33.39;101155.66;5051221;28;19913;-77
2021/06/15 08:54:28;;;;;;;;;;;;;;;27.06;33.56;101155.47;5050564;28;19917;-80
2021/06/15 08:57:17;;;;;;;;;;;;;;;26.73;32.01;101147.81;5048697;28;20376;-78
2021/06/15 09:00:07;;;;;;;;;;;;;;;27.05;33.33;101156.66;5040403;28;19913;-80
2021/06/15 09:02:52;;;;;;;;;;;;;;;27.11;31.13;101140.25;5045609;28;19921;-79
2021/06/15 09:05:36;;;;;;;;;;;;;;;26.88;32.91;101154.06;5054714;28;20333;-78
2021/06/15 09:08:20;;;;;;;;;;;;;;;26.84;34.00;101145.72;5041500;28;19913;-81
2021/06/15 09:11:05;;;;;;;;;;;;;;;26.83;33.80;101144.91;5042681;28;19917;-81
2021/06/15 09:13:50;;;;;;;;;;;;;;;26.92;33.51;101144.44;5036360;28;19912;-81
2021/06/15 09:16:37;;;;;;;;;;;;;;;26.76;32.98;101145.00;5029535;28;20377;-82
2021/06/15 09:19:23;;;;;;;;;;;;;;;27.17;33.01;101150.50;5054258;28;19912;-84
2021/06/15 09:22:20;;;;;;;;;;;;;;;26.96;31.94;101147.22;5065699;28;20393;-82
2021/06/15 09:25:07;;;;;;;;;;;;;;;27.01;32.58;101149.53;5047456;28;19917;-83
2021/06/15 09:27:54;;;;;;;;;;;;;;;27.30;31.85;101149.97;5039698;28;19917;-83
2021/06/15 09:30:38;;;;;;;;;;;;;;;27.08;33.85;101146.66;5048640;28;19920;-84
2021/06/15 09:33:35;;;;;;;;;;;;;;;27.36;31.57;101145.50;5053777;28;19917;-84
2021/06/15 09:36:25;;;;;;;;;;;;;;;27.48;31.44;101153.34;5047343;28;19912;-83
2021/06/15 09:39:10;;;;;;;;;;;;;;;27.61;30.62;101146.78;5054450;28;19913;-83
2021/06/15 09:41:54;;;;;;;;;;;;;;;27.57;32.20;101139.66;5045815;28;19913;-82
2021/06/15 09:44:40;;;;;;;;;;;;;;;27.59;32.59;101134.41;5025450;28;19916;-82
2021/06/15 09:47:25;;;;;;;;;;;;;;;27.81;32.95;101146.88;5044435;28;20300;-83
2021/06/15 09:50:09;;;;;;;;;;;;;;;26.75;36.68;101137.03;5061626;28;19912;-85
2021/06/15 09:52:54;;;;;;;;;;;;;;;26.51;35.90;101140.91;5044525;28;19913;-82
2021/06/15 09:55:46;;;;;;;;;;;;;;;26.91;34.19;101134.50;5047598;28;20389;-82
2021/06/15 09:58:41;;;;;;;;;;;;;;;27.68;32.69;101139.50;5061319;28;19932;-83
2021/06/15 10:01:28;;;;;;;;;;;;;;;27.51;32.29;101138.53;5061738;28;19913;-85
2021/06/15 10:04:18;;;;;;;;;;;;;;;27.28;34.24;101139.22;5044247;28;20364;-83
2021/06/15 10:07:02;;;;;;;;;;;;;;;26.62;35.78;101120.03;5066281;28;19912;-81
2021/06/15 10:09:47;;;;;;;;;;;;;;;26.95;33.31;101121.28;5066505;28;19917;-83
2021/06/15 10:12:32;;;;;;;;;;;;;;;27.12;35.08;101125.84;5081610;28;19912;-81
2021/06/15 10:15:17;;;;;;;;;;;;;;;27.17;34.95;101125.38;5045968;28;19913;-83
2021/06/15 10:18:02;;;;;;;;;;;;;;;27.33;34.22;101129.59;5046396;28;19912;-82
2021/06/15 10:20:47;;;;;;;;;;;;;;;27.37;33.25;101124.75;5058014;28;19913;-82
2021/06/15 10:23:31;;;;;;;;;;;;;;;27.29;35.16;101131.63;5043419;28;19920;-83
2021/06/15 10:26:17;;;;;;;;;;;;;;;26.86;35.49;101118.19;5046484;28;19917;-82
2021/06/15 10:29:09;;;;;;;;;;;;;;;27.23;35.51;101131.28;5038146;28;19913;-80
2021/06/15 10:31:56;;;;;;;;;;;;;;;27.62;33.80;101122.41;5031531;28;19916;-80
2021/06/15 10:34:45;;;;;;;;;;;;;;;28.01;32.29;101122.59;5030427;28;20383;-80
2021/06/15 10:37:33;;;;;;;;;;;;;;;28.09;33.56;101118.44;5035072;28;20377;-81
2021/06/15 10:40:17;;;;;;;;;;;;;;;27.96;33.42;101117.47;5045870;28;19916;-79
2021/06/15 10:43:17;;;;;;;;;;;;;;;27.97;34.69;101118.28;5048094;28;20375;-81
2021/06/15 10:46:11;;;;;;;;;;;;;;;28.23;33.64;101108.28;5061027;28;20376;-81
2021/06/15 10:49:03;;;;;;;;;;;;;;;28.58;33.09;101118.03;5034690;28;19913;-84
2021/06/15 10:52:12;;;;;;;;;;;;;;;28.66;32.83;101108.25;5047739;28;19916;-81
2021/06/15 10:54:56;;;;;;;;;;;;;;;28.55;34.37;101104.91;5037987;28;19912;-82
2021/06/15 10:57:49;;;;;;;;;;;;;;;28.56;33.41;101096.06;5041312;28;19913;-82
2021/06/15 11:00:45;;;;;;;;;;;;;;;28.56;33.06;101093.25;5055997;28;19917;-81
2021/06/15 11:03:30;;;;;;;;;;;;;;;28.21;34.32;101091.13;5018789;28;20296;-81
2021/06/15 11:06:20;;;;;;;;;;;;;;;28.45;34.17;101092.66;5041358;28;19917;-82
2021/06/15 11:09:04;;;;;;;;;;;;;;;28.42;34.11;101087.94;5044627;28;19916;-82
2021/06/15 11:12:10;;;;;;;;;;;;;;;28.42;33.87;101082.34;5045500;28;19913;-80
2021/06/15 11:15:08;;;;;;;;;;;;;;;28.38;34.00;101078.81;5036719;28;19913;-82
2021/06/15 11:17:54;;;;;;;;;;;;;;;28.66;33.22;101083.84;5054533;28;19916;-81
2021/06/15 11:20:39;;;;;;;;;;;;;;;28.81;32.54;101075.97;5057205;28;20293;-78
2021/06/15 11:23:27;;;;;;;;;;;;;;;27.56;36.87;101071.00;5032746;28;19928;-84
2021/06/15 11:26:13;;;;;;;;;;;;;;;27.79;35.84;101064.63;5027965;28;19925;-80
2021/06/15 11:28:58;;;;;;;;;;;;;;;27.35;36.79;101060.13;5044639;28;19912;-82
2021/06/15 11:31:42;;;;;;;;;;;;;;;28.24;34.88;101054.69;5053366;28;19917;-82
2021/06/15 11:34:27;;;;;;;;;;;;;;;28.60;34.06;101056.81;5048093;28;19913;-82
2021/06/15 11:37:19;;;;;;;;;;;;;;;28.54;34.43;101048.13;5034043;28;19912;-83
2021/06/15 11:40:25;;;;;;;;;;;;;;;28.91;34.23;101053.38;5037612;28;19913;-81
2021/06/15 11:43:11;;;;;;;;;;;;;;;28.94;33.86;101048.13;5043343;28;19912;-82
2021/06/15 11:46:10;;;;;;;;;;;;;;;28.32;34.80;101041.38;5038014;28;19936;-82
2021/06/15 11:49:08;;;;;;;;;;;;;;;28.97;33.81;101044.44;5034232;28;19912;-78
2021/06/15 11:51:53;;;;;;;;;;;;;;;28.86;33.22;101048.28;5061502;28;19912;-83
2021/06/15 11:54:37;;;;;;;;;;;;;;;28.25;35.90;101031.09;5046198;28;19916;-79
2021/06/15 11:57:21;;;;;;;;;;;;;;;28.25;35.91;101028.28;5043741;28;19913;-80
2021/06/15 12:00:17;;;;;;;;;;;;;;;28.16;35.63;101032.88;5058340;28;19920;-80
2021/06/15 12:03:05;;;;;;;;;;;;;;;27.44;36.80;101024.06;5043066;28;19912;-78
2021/06/15 12:05:59;;;;;;;;;;;;;;;28.37;35.68;101026.88;5046282;28;19917;-79
2021/06/15 12:08:44;;;;;;;;;;;;;;;27.76;37.29;101017.97;5057088;28;19913;-79
2021/06/15 12:11:29;;;;;;;;;;;;;;;28.05;35.60;101005.84;5042094;28;19932;-80
2021/06/15 12:14:13;;;;;;;;;;;;;;;28.72;33.68;101012.19;5053846;28;19913;-81
2021/06/15 12:17:01;;;;;;;;;;;;;;;28.97;32.40;101011.63;5043617;28;19917;-81
2021/06/15 12:19:46;;;;;;;;;;;;;;;28.66;35.42;101011.06;5030365;28;19925;-82
2021/06/15 12:22:30;;;;;;;;;;;;;;;30.55;32.69;101006.03;5039303;28;19913;-80
2021/06/15 12:25:18;;;;;;;;;;;;;;;31.23;31.81;101016.03;5047857;28;19917;-82
2021/06/15 12:28:07;;;;;;;;;;;;;;;31.21;29.77;101012.88;5024771;28;20401;-83
2021/06/15 12:31:03;;;;;;;;;;;;;;;31.17;30.22;101005.81;5054437;28;19912;-82
2021/06/15 12:33:51;;;;;;;;;;;;;;;31.04;30.03;101005.78;5037186;28;19916;-82
2021/06/15 12:36:37;;;;;;;;;;;;;;;32.87;28.18;101008.28;5057634;28;19912;-82
2021/06/15 12:39:24;;;;;;;;;;;;;;;32.49;28.59;101002.91;5050155;28;19912;-81
2021/06/15 12:42:14;;;;;;;;;;;;;;;32.50;27.92;100999.63;5045977;28;19909;-79
2021/06/15 12:45:00;;;;;;;;;;;;;;;33.16;27.58;100996.69;5059952;28;19925;-79
2021/06/15 12:47:46;;;;;;;;;;;;;;;32.33;26.81;100989.00;5046194;28;19913;-80
2021/06/15 12:50:31;;;;;;;;;;;;;;;32.00;29.33;100980.91;5049033;28;19901;-79
2021/06/15 12:53:25;;;;;;;;;;;;;;;31.43;30.40;100988.47;5070900;28;19913;-79
2021/06/15 12:56:18;;;;;;;;;;;;;;;31.62;30.07;100977.44;5050280;28;19921;-78
2021/06/15 12:59:13;;;;;;;;;;;;;;;30.77;31.43;100980.13;5039417;28;20381;-79
2021/06/15 13:01:59;;;;;;;;;;;;;;;30.71;31.83;100967.88;5055206;28;19912;-78
2021/06/15 13:04:48;;;;;;;;;;;;;;;30.67;31.56;100970.03;5067423;28;19905;-81
2021/06/15 13:07:33;;;;;;;;;;;;;;;30.02;31.16;100962.59;5057690;28;19913;-80
2021/06/15 13:10:19;;;;;;;;;;;;;;;30.12;32.10;100967.13;5034942;28;19913;-81
2021/06/15 13:13:13;;;;;;;;;;;;;;;30.07;31.75;100969.72;5046693;28;19913;-79
2021/06/15 13:16:10;;;;;;;;;;;;;;;29.75;32.41;100965.72;5050150;28;19917;-78
2021/06/15 13:18:59;;;;;;;;;;;;;;;29.76;32.17;100964.47;5065243;28;20368;-78
2021/06/15 13:21:46;;;;;;;;;;;;;;;29.87;32.40;100957.81;5042650;28;19913;-79
2021/06/15 13:24:40;;;;;;;;;;;;;;;29.30;33.88;100934.84;5036725;28;19917;-80
2021/06/15 13:27:36;;;;;;;;;;;;;;;29.46;32.33;100936.84;5055910;28;19913;-79
2021/06/15 13:30:25;;;;;;;;;;;;;;;28.48;35.46;100932.31;5046633;28;20309;-80
2021/06/15 13:33:14;;;;;;;;;;;;;;;27.93;37.10;100931.00;5031592;28;19913;-80
2021/06/15 13:35:59;;;;;;;;;;;;;;;27.80;37.74;100932.06;5032919;28;20042;-78
2021/06/15 13:38:45;;;;;;;;;;;;;;;28.49;34.70;100925.50;5046059;28;19912;-81
2021/06/15 13:41:29;;;;;;;;;;;;;;;28.57;35.79;100926.13;5059888;28;19916;-79
2021/06/15 13:44:14;;;;;;;;;;;;;;;27.69;38.39;100921.06;5038618;28;19913;-81
2021/06/15 13:46:59;;;;;;;;;;;;;;;27.04;39.25;100923.34;5057732;28;20372;-80
2021/06/15 13:49:44;;;;;;;;;;;;;;;26.89;39.72;100927.56;5045753;28;19912;-80
2021/06/15 13:52:28;;;;;;;;;;;;;;;26.90;39.85;100911.59;5039317;28;20296;-79
2021/06/15 13:55:13;;;;;;;;;;;;;;;27.32;38.92;100924.09;5037762;28;19912;-80
2021/06/15 13:57:58;;;;;;;;;;;;;;;27.38;38.77;100905.66;5046292;28;19912;-80
2021/06/15 14:00:45;;;;;;;;;;;;;;;27.60;37.52;100898.47;5041440;28;19912;-81
2021/06/15 14:03:30;;;;;;;;;;;;;;;27.47;38.55;100903.09;5049154;28;19916;-80
2021/06/15 14:06:14;;;;;;;;;;;;;;;27.67;38.38;100900.38;5036604;28;19916;-81
2021/06/15 14:08:58;;;;;;;;;;;;;;;27.78;38.25;100906.56;5043824;28;19920;-81
2021/06/15 14:11:43;;;;;;;;;;;;;;;27.30;38.91;100899.38;5046289;28;20401;-82
2021/06/15 14:14:28;;;;;;;;;;;;;;;27.75;38.08;100888.63;5045206;28;19913;-80
2021/06/15 14:17:13;;;;;;;;;;;;;;;27.85;37.52;100893.22;5067723;28;20380;-81
2021/06/15 14:19:57;;;;;;;;;;;;;;;27.94;37.18;100896.22;5053801;28;19920;-80
2021/06/15 14:22:42;;;;;;;;;;;;;;;28.36;36.50;100885.41;5036551;28;19913;-80